EST,Max TemperatureF,Mean TemperatureF,Min TemperatureF,Max Dew PointF,MeanDew PointF,Min DewpointF,Max Humidity, Mean Humidity, Min Humidity, Max Sea Level PressureIn, Mean Sea Level PressureIn, Min Sea Level PressureIn, Max VisibilityMiles, Mean VisibilityMiles, Min VisibilityMiles, Max Wind SpeedMPH, Mean Wind SpeedMPH, Max Gust SpeedMPH,PrecipitationIn, CloudCover, Events, WindDirDegrees
2013-1-1,48,44,37,34,31,27,64,60,56,29.99,29.96,29.89,10,10,10,13,5,21,0.00,5,,323
2013-1-2,41,36,31,29,27,19,75,69,63,30.22,30.10,29.99,10,10,8,8,3,9,0.00,6,,53
2013-1-3,40,34,28,22,18,14,69,55,40,30.24,30.20,30.15,10,10,10,12,4,12,0.00,3,,209
2013-1-4,45,37,28,18,17,15,53,43,33,30.23,30.19,30.12,10,10,10,14,5,21,0.00,0,,239
2013-1-5,49,39,28,28,17,14,64,44,24,30.37,30.26,30.18,10,10,10,10,5,13,T,1,,200
2013-1-6,50,40,30,31,27,25,88,56,38,30.16,30.10,30.04,10,10,10,7,2,,0.00,3,Rain,209
2013-1-7,47,38,28,26,25,23,69,54,38,30.44,30.35,30.15,10,10,10,9,3,14,0.00,2,,336
2013-1-8,52,38,23,32,28,23,85,64,42,30.43,30.39,30.34,10,10,9,14,6,17,0.00,1,,213
2013-1-9,60,44,27,45,37,26,92,73,53,30.39,30.33,30.27,10,10,8,16,6,22,0.00,2,,213
2013-1-10,60,48,36,28,25,20,59,44,28,30.57,30.48,30.39,10,10,10,10,2,18,0.00,1,,33
2013-1-11,43,40,37,41,36,26,96,75,53,30.46,30.24,30.09,10,6,1,10,3,12,0.04,8,Rain,181
2013-1-12,57,48,39,47,43,39,100,86,71,30.17,30.13,30.09,10,4,0,6,1,10,0.00,4,Fog,99
2013-1-13,64,55,45,58,51,44,100,92,84,30.12,30.04,29.98,10,4,0,14,3,17,0.02,4,Fog,187
2013-1-14,62,52,41,60,49,39,97,82,66,30.27,30.13,29.97,10,9,3,18,7,23,0.14,7,Rain,69
2013-1-15,41,39,36,37,36,35,100,93,85,30.32,30.24,30.12,10,5,2,10,5,14,1.10,8,Rain,40
2013-1-16,43,39,35,40,37,33,93,91,89,30.13,30.01,29.89,10,5,2,14,3,39,0.30,8,Rain,73
2013-1-17,44,39,33,43,36,32,100,93,85,30.12,30.06,29.96,9,3,0,13,3,16,0.52,7,Fog-Rain-Snow,59
2013-1-18,43,35,27,32,21,12,96,63,29,30.49,30.37,30.12,10,10,8,14,5,16,0.01,0,,232
2013-1-19,52,39,26,29,26,21,81,61,41,30.41,30.24,30.01,10,10,10,20,11,23,0.00,0,,192
2013-1-20,60,48,35,28,19,1,70,43,15,30.06,29.95,29.87,10,10,10,17,8,26,0.00,0,,229
2013-1-21,52,40,27,17,10,1,53,36,18,30.07,29.96,29.78,10,10,10,16,6,31,0.00,0,,270
2013-1-22,32,25,18,5,-5,-10,39,30,21,30.28,30.16,29.96,10,10,10,14,6,21,0.00,0,,306
2013-1-23,31,22,12,14,0,-6,61,41,21,30.34,30.23,30.10,10,9,1,14,5,18,T,4,Snow,33
2013-1-24,27,20,13,18,8,-3,84,57,29,30.53,30.27,30.03,10,7,1,17,6,28,T,4,Snow,18
2013-1-25,23,18,12,18,11,1,84,64,43,30.51,30.23,30.06,10,7,1,18,6,23,T,6,Snow,192
2013-1-26,36,28,19,23,19,16,91,74,56,30.43,30.22,30.06,10,10,7,8,1,10,0.00,6,,346
2013-1-27,38,29,19,22,20,18,92,70,48,30.60,30.52,30.44,10,9,5,12,4,15,0.00,3,,206
2013-1-28,53,42,31,43,33,22,92,78,63,30.45,30.28,30.09,10,5,2,17,8,21,0.21,6,Rain,196
2013-1-29,74,59,43,52,47,41,89,68,46,30.12,30.05,29.96,10,10,8,15,9,23,0.00,1,,194
2013-1-30,69,62,55,63,56,50,100,86,72,29.94,29.56,29.24,10,6,1,32,14,39,2.56,7,Rain,198
2013-1-31,59,45,31,57,25,12,100,67,33,29.91,29.63,29.26,10,9,1,20,9,37,0.15,4,Rain,270